Aviation Digital Data Service (ADDS)

Output produced by METARs form (0531 UTC 19 March 2019)
found at http://www.aviationweather.gov/metar/data/
 
Forecast for: COR
Text: TAF COR ESPA 190505Z 1905/1912 34009KT 9999 BKN020 RMK MIL
Forecast period: 0500 to 1200 UTC 19 March 2019
Forecast type: FROM: standard forecast or significant change
Winds: from the NNW (340 degrees) at 10 MPH (9 knots; 4.6 m/s)
Visibility: 6 or more miles 10+ km)
Ceiling: 2000 feet AGL
Clouds: broken clouds at 2000 feet AGL
Weather: no significant weather forecast for this period